Time;durP1;ratioP1;P1;durP2;ratioP2;P2;SDS_P1;SDS_P2;PMS_P1;PMS_P2;Temp;Humidity;BMP_temperature;BMP_pressure;BME280_temperature;BME280_humidity;BME280_pressure;Samples;Min_cycle;Max_cycle;Signal;HPM_P1;HPM_P2
2021/06/07 00:02:10;;;;;;;5.00;3.33;;;24.30;78.70;;;;;;5114471;28;20058;-60
2021/06/07 00:04:39;;;;;;;8.43;4.60;;;24.20;79.80;;;;;;5086333;28;20044;-60
2021/06/07 00:07:08;;;;;;;10.88;5.70;;;24.10;80.70;;;;;;5114732;28;20043;-60
2021/06/07 00:09:37;;;;;;;6.40;4.43;;;23.90;81.50;;;;;;5104566;28;20058;-60
2021/06/07 00:12:12;;;;;;;8.52;4.50;;;23.70;82.70;;;;;;5077073;28;20410;-60
2021/06/07 00:14:40;;;;;;;10.77;4.90;;;23.60;83.50;;;;;;5101769;28;20051;-60
2021/06/07 00:17:08;;;;;;;7.75;4.30;;;23.40;84.00;;;;;;5114413;28;20054;-60
2021/06/07 00:19:38;;;;;;;8.77;4.68;;;23.20;85.00;;;;;;5102903;28;20113;-59
2021/06/07 00:22:07;;;;;;;8.88;4.38;;;23.00;85.40;;;;;;5114327;28;20071;-60
2021/06/07 00:24:34;;;;;;;7.47;4.53;;;23.20;85.50;;;;;;5105376;28;20500;-59
2021/06/07 00:27:03;;;;;;;8.80;4.15;;;23.20;85.20;;;;;;5094354;28;20052;-60
2021/06/07 00:29:30;;;;;;;11.52;5.13;;;23.20;85.00;;;;;;5103756;28;20043;-59
2021/06/07 00:32:04;;;;;;;7.18;4.80;;;23.20;85.30;;;;;;5114521;28;20039;-59
2021/06/07 00:34:32;;;;;;;8.13;5.47;;;23.10;84.80;;;;;;5104910;28;20409;-59
2021/06/07 00:37:00;;;;;;;7.65;4.28;;;23.10;85.10;;;;;;5094365;28;20052;-60
2021/06/07 00:39:28;;;;;;;5.75;4.60;;;23.10;85.30;;;;;;5102870;28;20050;-60
2021/06/07 00:41:55;;;;;;;9.48;5.75;;;23.20;85.10;;;;;;5113837;28;20423;-60
2021/06/07 00:44:23;;;;;;;9.15;4.82;;;23.30;84.90;;;;;;5102634;28;20044;-60
2021/06/07 00:46:51;;;;;;;7.50;4.97;;;23.20;84.80;;;;;;5114657;28;20048;-60
2021/06/07 00:49:19;;;;;;;12.38;5.38;;;23.20;84.80;;;;;;5101997;28;20052;-60
2021/06/07 00:51:47;;;;;;;8.75;4.93;;;23.10;85.00;;;;;;5113630;28;20040;-60
2021/06/07 00:54:16;;;;;;;11.05;6.28;;;22.80;85.80;;;;;;5100780;28;20076;-59
2021/06/07 00:56:45;;;;;;;9.68;5.50;;;22.70;85.80;;;;;;5113168;28;20130;-60
2021/06/07 00:59:13;;;;;;;8.60;5.35;;;22.60;86.20;;;;;;5100623;28;20048;-60
2021/06/07 01:01:41;;;;;;;8.00;5.70;;;22.50;86.50;;;;;;5114624;28;20074;-59
2021/06/07 01:04:09;;;;;;;10.55;5.28;;;22.50;86.60;;;;;;5101874;28;20046;-60
2021/06/07 01:06:37;;;;;;;7.63;5.57;;;22.40;86.80;;;;;;5114754;28;20059;-59
2021/06/07 01:09:06;;;;;;;7.85;5.53;;;22.40;87.20;;;;;;5100768;28;20052;-59
2021/06/07 01:11:35;;;;;;;10.65;4.72;;;22.30;87.30;;;;;;5073954;28;20059;-59
2021/06/07 01:14:04;;;;;;;8.48;5.25;;;22.40;87.20;;;;;;5096125;28;20363;-59
2021/06/07 01:16:32;;;;;;;9.45;5.13;;;22.40;87.50;;;;;;5114554;28;20408;-59
2021/06/07 01:19:01;;;;;;;10.00;6.00;;;22.30;87.70;;;;;;5102245;28;20044;-59
2021/06/07 01:21:29;;;;;;;7.43;4.68;;;22.30;87.90;;;;;;5112855;28;20093;-59
2021/06/07 01:23:58;;;;;;;12.20;5.63;;;22.20;88.20;;;;;;5101780;28;20055;-60
2021/06/07 01:26:26;;;;;;;7.97;5.40;;;22.20;88.40;;;;;;5112195;28;20073;-59
2021/06/07 01:28:55;;;;;;;8.23;4.45;;;22.30;88.20;;;;;;5103187;28;20048;-59
2021/06/07 01:31:23;;;;;;;7.35;5.03;;;22.20;88.30;;;;;;5111618;28;20409;-59
2021/06/07 01:33:53;;;;;;;12.65;5.05;;;22.20;88.60;;;;;;5103963;28;20067;-59
2021/06/07 01:36:21;;;;;;;6.90;4.40;;;22.20;89.00;;;;;;5111398;28;20489;-59
2021/06/07 01:38:49;;;;;;;7.38;4.38;;;22.10;89.50;;;;;;5102641;28;20054;-59
2021/06/07 01:41:19;;;;;;;7.95;3.38;;;22.20;89.50;;;;;;5111997;28;20415;-59
2021/06/07 01:43:47;;;;;;;9.02;4.18;;;22.20;89.50;;;;;;5082603;28;20045;-59
2021/06/07 01:46:15;;;;;;;9.13;4.00;;;22.20;89.30;;;;;;5090193;28;20054;-59
2021/06/07 01:48:43;;;;;;;5.45;3.75;;;22.20;89.40;;;;;;5098794;28;20130;-59
2021/06/07 01:51:11;;;;;;;5.75;3.90;;;22.10;89.80;;;;;;5110683;28;20040;-60
2021/06/07 01:53:40;;;;;;;7.65;4.10;;;22.10;90.00;;;;;;5104066;28;20071;-59
2021/06/07 01:56:09;;;;;;;6.22;3.70;;;22.10;90.10;;;;;;5110620;28;20105;-60
2021/06/07 01:58:39;;;;;;;5.43;3.47;;;22.10;90.20;;;;;;5105111;28;20052;-59
2021/06/07 02:01:07;;;;;;;6.88;3.67;;;22.20;90.30;;;;;;5109345;28;20462;-59
2021/06/07 02:03:35;;;;;;;9.07;4.30;;;22.20;90.40;;;;;;5105405;28;20486;-59
2021/06/07 02:06:06;;;;;;;7.18;4.03;;;22.20;90.30;;;;;;5109489;28;20055;-59
2021/06/07 02:08:34;;;;;;;9.20;3.90;;;22.10;90.30;;;;;;5104289;28;20044;-59
2021/06/07 02:11:11;;;;;;;6.90;3.85;;;22.20;90.20;;;;;;5108092;28;20134;-60
2021/06/07 02:13:39;;;;;;;6.70;3.67;;;22.20;90.30;;;;;;5105330;28;20044;-59
2021/06/07 02:16:13;;;;;;;6.75;4.05;;;22.20;90.30;;;;;;5114192;28;20190;-59
2021/06/07 02:18:41;;;;;;;7.88;3.85;;;22.10;90.40;;;;;;5107709;28;20048;-60
2021/06/07 02:21:17;;;;;;;7.90;4.53;;;22.10;90.40;;;;;;5114171;28;20097;-59
2021/06/07 02:23:45;;;;;;;5.65;3.47;;;22.20;90.40;;;;;;5108196;28;20048;-59
2021/06/07 02:26:13;;;;;;;8.82;4.00;;;22.20;90.40;;;;;;5114869;28;20071;-59
2021/06/07 02:28:48;;;;;;;6.03;3.78;;;22.20;90.60;;;;;;5090486;28;20102;-59
2021/06/07 02:31:17;;;;;;;5.70;3.97;;;22.30;90.50;;;;;;5114282;28;20055;-59
2021/06/07 02:33:48;;;;;;;8.15;3.63;;;22.30;90.60;;;;;;5107005;28;20048;-59
2021/06/07 02:36:15;;;;;;;5.35;3.80;;;22.30;90.80;;;;;;5115434;28;20051;-59
2021/06/07 02:38:44;;;;;;;7.32;3.50;;;22.20;91.10;;;;;;5108071;28;20052;-59
2021/06/07 02:41:12;;;;;;;7.15;4.10;;;22.10;91.30;;;;;;5114757;28;20477;-59
2021/06/07 02:43:39;;;;;;;8.48;4.25;;;22.10;91.40;;;;;;5108257;28;20114;-59
2021/06/07 02:46:07;;;;;;;5.72;4.00;;;22.10;91.50;;;;;;5112803;28;20481;-59
2021/06/07 02:48:36;;;;;;;5.13;3.08;;;22.20;91.50;;;;;;5109117;28;20401;-59
2021/06/07 02:51:05;;;;;;;6.97;3.80;;;22.30;91.40;;;;;;5112208;28;20047;-59
2021/06/07 02:53:33;;;;;;;10.85;4.57;;;22.40;91.30;;;;;;5109189;28;20047;-59
2021/06/07 02:56:00;;;;;;;6.28;3.53;;;22.50;91.20;;;;;;5094645;28;20066;-59
2021/06/07 02:58:28;;;;;;;7.50;3.78;;;22.40;91.30;;;;;;5109829;28;20048;-59
2021/06/07 03:00:59;;;;;;;6.70;3.67;;;22.50;91.20;;;;;;5110622;28;20052;-59
2021/06/07 03:03:27;;;;;;;7.15;3.97;;;22.50;91.20;;;;;;5108806;28;20044;-59
2021/06/07 03:05:58;;;;;;;8.55;4.25;;;22.70;91.20;;;;;;5111840;28;20130;-59
2021/06/07 03:08:29;;;;;;;6.95;3.88;;;22.70;91.10;;;;;;5108498;28;20598;-59
2021/06/07 03:11:03;;;;;;;8.18;4.75;;;22.70;91.10;;;;;;5111818;28;20093;-59
2021/06/07 03:13:31;;;;;;;4.75;3.30;;;22.70;91.20;;;;;;5108196;28;20052;-59
2021/06/07 03:16:00;;;;;;;6.75;4.63;;;22.70;91.20;;;;;;5110926;28;20051;-59
2021/06/07 03:18:29;;;;;;;9.10;4.53;;;22.80;91.30;;;;;;5109471;28;20051;-59
2021/06/07 03:20:57;;;;;;;8.20;4.45;;;22.80;91.30;;;;;;5111591;28;20047;-59
2021/06/07 03:23:28;;;;;;;8.77;3.75;;;22.90;91.40;;;;;;5109794;28;20680;-59
2021/06/07 03:25:56;;;;;;;6.60;3.97;;;23.00;91.10;;;;;;5110376;28;20146;-59
2021/06/07 03:28:24;;;;;;;6.65;4.07;;;23.10;90.80;;;;;;5109779;28;20047;-59
2021/06/07 03:30:53;;;;;;;7.10;4.93;;;23.10;90.70;;;;;;5110658;28;20051;-59
2021/06/07 03:33:21;;;;;;;6.50;3.70;;;23.00;90.90;;;;;;5109250;28;20493;-59
2021/06/07 03:35:50;;;;;;;5.32;4.10;;;22.90;90.90;;;;;;5110098;28;20043;-59
2021/06/07 03:38:18;;;;;;;8.18;5.30;;;22.80;91.10;;;;;;5109417;28;20040;-60
2021/06/07 03:40:51;;;;;;;9.90;6.38;;;22.70;91.30;;;;;;5108443;28;20040;-60
2021/06/07 03:43:21;;;;;;;12.55;7.47;;;22.60;91.50;;;;;;5110056;28;20048;-59
2021/06/07 03:45:49;;;;;;;11.77;6.45;;;22.70;91.70;;;;;;5108864;28;20046;-59
2021/06/07 03:48:17;;;;;;;17.33;13.80;;;22.70;91.70;;;;;;5110341;28;20547;-59
2021/06/07 03:50:45;;;;;;;12.25;5.97;;;22.80;91.60;;;;;;5109279;28;20050;-59
2021/06/07 03:53:13;;;;;;;10.77;6.45;;;22.70;91.50;;;;;;5111186;28;20052;-59
2021/06/07 03:55:41;;;;;;;6.60;5.10;;;22.80;91.70;;;;;;5108714;28;20047;-59
2021/06/07 03:58:10;;;;;;;7.60;5.38;;;22.80;91.70;;;;;;5111718;28;20059;-59
2021/06/07 04:00:39;;;;;;;8.15;5.07;;;22.70;91.70;;;;;;5108072;28;20052;-59
2021/06/07 04:03:08;;;;;;;7.70;4.00;;;22.60;91.70;;;;;;5111776;28;20105;-59
2021/06/07 04:05:38;;;;;;;10.07;4.20;;;22.60;91.50;;;;;;5108626;28;20083;-60
2021/06/07 04:08:07;;;;;;;7.53;4.55;;;22.50;91.60;;;;;;5098306;28;20048;-59
2021/06/07 04:10:35;;;;;;;8.63;5.47;;;22.60;91.80;;;;;;5103548;28;20048;-59
2021/06/07 04:13:03;;;;;;;8.77;4.85;;;22.60;91.90;;;;;;5082767;28;20043;-59
2021/06/07 04:15:31;;;;;;;8.52;4.88;;;22.60;91.90;;;;;;5065588;28;20041;-59
2021/06/07 04:17:59;;;;;;;13.73;8.68;;;22.60;92.10;;;;;;5095298;28;20040;-59
2021/06/07 04:20:30;;;;;;;8.43;5.20;;;22.60;92.00;;;;;;5101677;28;20112;-60
2021/06/07 04:22:58;;;;;;;11.27;6.78;;;22.50;92.30;;;;;;5097470;28;20863;-59
2021/06/07 04:25:27;;;;;;;10.00;5.57;;;22.50;92.50;;;;;;5095187;28;20181;-59
2021/06/07 04:27:55;;;;;;;8.63;4.43;;;22.60;92.50;;;;;;5094312;28;20042;-59
2021/06/07 04:30:25;;;;;;;10.23;3.90;;;22.50;92.60;;;;;;5087232;28;20071;-59
2021/06/07 04:32:54;;;;;;;6.43;3.85;;;22.30;93.00;;;;;;5092041;28;20054;-60
2021/06/07 04:35:22;;;;;;;11.88;4.68;;;22.40;93.20;;;;;;5092671;28;20098;-59
2021/06/07 04:37:53;;;;;;;6.10;3.70;;;22.40;93.40;;;;;;5092011;28;20044;-59
2021/06/07 04:40:40;;;;;;;7.88;4.72;;;22.30;93.80;;;;;;5104853;28;20457;-59
2021/06/07 04:43:11;;;;;;;6.80;4.45;;;22.40;94.00;;;;;;5108408;28;20452;-59
2021/06/07 04:45:40;;;;;;;7.85;4.38;;;22.30;94.30;;;;;;5105319;28;20104;-59
2021/06/07 04:48:09;;;;;;;8.70;4.28;;;22.30;94.60;;;;;;5104852;28;20050;-59
2021/06/07 04:50:38;;;;;;;6.63;3.83;;;22.30;95.00;;;;;;5063260;28;20532;-59
2021/06/07 04:53:08;;;;;;;8.88;4.45;;;22.20;95.20;;;;;;5086066;28;20135;-59
2021/06/07 04:55:42;;;;;;;6.78;4.38;;;22.30;95.50;;;;;;5105838;28;20046;-59
2021/06/07 04:58:23;;;;;;;5.75;4.38;;;22.20;95.70;;;;;;5108919;28;20148;-59
2021/06/07 05:01:13;;;;;;;7.22;4.10;;;22.20;95.90;;;;;;5107679;28;20073;-59
2021/06/07 05:03:41;;;;;;;5.68;4.45;;;22.40;95.70;;;;;;5105636;28;20044;-59
2021/06/07 05:06:09;;;;;;;8.25;4.43;;;22.50;95.50;;;;;;5111346;28;20558;-59
2021/06/07 05:08:36;;;;;;;6.18;3.78;;;22.60;95.50;;;;;;5105923;28;20044;-59
2021/06/07 05:11:04;;;;;;;6.57;4.50;;;22.70;95.50;;;;;;5110863;28;20446;-59
2021/06/07 05:13:32;;;;;;;9.52;4.97;;;22.60;96.00;;;;;;5106779;28;20044;-59
2021/06/07 05:16:00;;;;;;;7.70;3.92;;;22.40;96.40;;;;;;5110386;28;20063;-59
2021/06/07 05:18:28;;;;;;;9.93;5.03;;;22.50;96.70;;;;;;5106107;28;20071;-59
2021/06/07 05:20:56;;;;;;;6.85;5.10;;;22.50;96.90;;;;;;5109186;28;20043;-59
2021/06/07 05:23:23;;;;;;;7.80;5.10;;;22.50;97.10;;;;;;5107941;28;20453;-59
2021/06/07 05:25:52;;;;;;;7.32;4.65;;;22.50;97.20;;;;;;5107248;28;20083;-59
2021/06/07 05:28:20;;;;;;;5.63;4.63;;;22.60;97.10;;;;;;5106893;28;20047;-59
2021/06/07 05:30:50;;;;;;;5.88;4.40;;;22.70;96.70;;;;;;5107551;28;20135;-59
2021/06/07 05:33:18;;;;;;;5.32;3.63;;;22.70;96.40;;;;;;5107406;28;20051;-59
2021/06/07 05:35:49;;;;;;;8.23;4.45;;;22.80;96.10;;;;;;5107745;28;20071;-59
2021/06/07 05:38:18;;;;;;;6.72;4.43;;;22.80;96.20;;;;;;5107617;28;20040;-59
2021/06/07 05:40:48;;;;;;;6.70;3.80;;;22.80;95.60;;;;;;5107002;28;20420;-59
2021/06/07 05:43:18;;;;;;;6.63;4.68;;;22.80;95.30;;;;;;5108393;28;20104;-59
2021/06/07 05:45:46;;;;;;;8.00;4.25;;;22.90;95.00;;;;;;5107393;28;20043;-59
2021/06/07 05:48:14;;;;;;;7.75;3.88;;;23.00;94.50;;;;;;5106684;28;20051;-59
2021/06/07 05:50:42;;;;;;;10.40;4.35;;;23.10;94.20;;;;;;5106541;28;20168;-59
2021/06/07 05:53:11;;;;;;;6.93;3.40;;;23.30;93.80;;;;;;5107922;28;20068;-59
2021/06/07 05:55:42;;;;;;;7.05;3.33;;;23.50;93.20;;;;;;5106435;28;20054;-59
2021/06/07 05:58:17;;;;;;;5.85;3.08;;;23.80;92.80;;;;;;5109343;28;20442;-59
2021/06/07 06:00:47;;;;;;;9.43;3.80;;;24.00;91.60;;;;;;5107160;28;20059;-59
2021/06/07 06:03:16;;;;;;;7.53;3.90;;;24.00;91.50;;;;;;5108280;28;20443;-59
2021/06/07 06:05:44;;;;;;;6.15;3.35;;;24.00;91.80;;;;;;5105681;28;20108;-59
2021/06/07 06:08:13;;;;;;;5.97;4.07;;;23.80;92.30;;;;;;5108731;28;20058;-59
2021/06/07 06:10:41;;;;;;;8.43;4.60;;;23.70;92.70;;;;;;5104907;28;20138;-59
2021/06/07 06:13:18;;;;;;;8.15;4.25;;;23.50;92.70;;;;;;5107985;28;20497;-59
2021/06/07 06:15:46;;;;;;;6.75;4.03;;;23.40;92.70;;;;;;5106021;28;20048;-59
2021/06/07 06:18:14;;;;;;;7.88;4.75;;;23.40;92.70;;;;;;5108623;28;20131;-59
2021/06/07 06:20:41;;;;;;;7.65;3.72;;;23.50;92.60;;;;;;5106559;28;20391;-59
2021/06/07 06:23:09;;;;;;;5.70;4.10;;;23.40;93.20;;;;;;5108921;28;20051;-59
2021/06/07 06:25:37;;;;;;;7.97;3.88;;;23.40;93.90;;;;;;5104790;28;20044;-59
2021/06/07 06:28:06;;;;;;;9.63;4.68;;;23.40;94.40;;;;;;5109487;28;20094;-59
2021/06/07 06:30:34;;;;;;;7.38;4.18;;;23.50;94.80;;;;;;5105397;28;20062;-59
2021/06/07 06:33:02;;;;;;;6.75;4.95;;;23.50;94.60;;;;;;5109858;28;20046;-59
2021/06/07 06:35:30;;;;;;;7.43;4.35;;;23.70;94.40;;;;;;5096028;28;20127;-59
2021/06/07 06:37:58;;;;;;;6.40;4.13;;;24.00;93.70;;;;;;5091688;28;20497;-59
2021/06/07 06:40:28;;;;;;;4.97;3.85;;;24.20;93.20;;;;;;5104255;28;20047;-59
2021/06/07 06:42:58;;;;;;;6.15;4.03;;;24.40;93.10;;;;;;5108263;28;20044;-60
2021/06/07 06:45:27;;;;;;;7.97;3.92;;;24.70;93.10;;;;;;5103105;28;20054;-59
2021/06/07 06:47:56;;;;;;;6.68;3.45;;;25.10;92.40;;;;;;5109933;28;20044;-59
2021/06/07 06:50:33;;;;;;;6.18;4.53;;;25.50;91.90;;;;;;5104117;28;20048;-60
2021/06/07 06:53:03;;;;;;;9.23;4.32;;;25.90;91.40;;;;;;5109673;28;20040;-59
2021/06/07 06:55:32;;;;;;;9.65;3.55;;;25.80;88.20;;;;;;5095165;28;20486;-60
2021/06/07 06:58:00;;;;;;;13.75;4.45;;;25.70;88.30;;;;;;5108489;28;20048;-59
2021/06/07 07:00:28;;;;;;;6.50;3.28;;;25.80;88.20;;;;;;5107240;28;20044;-60
2021/06/07 07:02:56;;;;;;;7.15;3.40;;;25.80;88.00;;;;;;5112175;28;20044;-60
2021/06/07 07:05:24;;;;;;;5.28;3.13;;;26.00;87.10;;;;;;5106814;28;20086;-60
2021/06/07 07:07:51;;;;;;;6.47;3.20;;;26.30;85.10;;;;;;5113528;28;20397;-60
2021/06/07 07:10:19;;;;;;;4.95;3.00;;;26.30;84.00;;;;;;5107992;28;20551;-60
2021/06/07 07:12:47;;;;;;;9.00;3.30;;;26.50;83.40;;;;;;5111701;28;20127;-60
2021/06/07 07:15:17;;;;;;;6.40;3.60;;;26.50;83.70;;;;;;5106382;28;20046;-60
2021/06/07 07:17:45;;;;;;;7.20;3.40;;;26.30;83.20;;;;;;5112856;28;20052;-60
2021/06/07 07:20:14;;;;;;;6.93;3.08;;;26.10;84.20;;;;;;5107416;28;20047;-59
2021/06/07 07:22:42;;;;;;;6.93;3.15;;;26.00;82.70;;;;;;5112584;28;20047;-59
2021/06/07 07:25:11;;;;;;;7.50;2.90;;;25.80;82.80;;;;;;5107176;28;20040;-59
2021/06/07 07:27:40;;;;;;;5.95;3.20;;;25.90;83.00;;;;;;5111273;28;20047;-60
2021/06/07 07:30:14;;;;;;;5.85;2.72;;;26.00;82.60;;;;;;5105718;28;20055;-59
2021/06/07 07:32:43;;;;;;;6.40;3.83;;;26.20;81.70;;;;;;5111002;28;20134;-59
2021/06/07 07:35:12;;;;;;;4.72;3.00;;;26.40;80.90;;;;;;5106872;28;20048;-59
2021/06/07 07:37:41;;;;;;;5.53;3.35;;;26.70;80.80;;;;;;5110978;28;20490;-60
2021/06/07 07:40:12;;;;;;;5.78;3.35;;;27.10;80.00;;;;;;5107023;28;20048;-60
2021/06/07 07:42:41;;;;;;;10.15;3.83;;;27.50;79.20;;;;;;5111830;28;20048;-60
2021/06/07 07:45:11;;;;;;;7.32;3.70;;;27.50;76.40;;;;;;5106761;28;20047;-60
2021/06/07 07:47:39;;;;;;;6.95;3.95;;;27.50;75.50;;;;;;5112078;28;20044;-60
2021/06/07 07:50:10;;;;;;;6.78;2.97;;;27.40;75.40;;;;;;5106946;28;20430;-60
2021/06/07 07:52:41;;;;;;;5.35;2.80;;;27.40;76.00;;;;;;5111959;28;20097;-60
2021/06/07 07:55:33;;;;;;;6.00;3.30;;;27.50;74.90;;;;;;5106836;28;20052;-60
2021/06/07 07:58:05;;;;;;;5.35;2.67;;;27.80;73.60;;;;;;5112339;28;20044;-60
2021/06/07 08:00:34;;;;;;;6.43;2.72;;;28.20;73.40;;;;;;5099036;28;20044;-60
2021/06/07 08:03:02;;;;;;;6.85;2.95;;;28.30;72.10;;;;;;5111707;28;20131;-60
2021/06/07 08:05:30;;;;;;;7.50;2.55;;;28.30;71.80;;;;;;5096724;28;20075;-60
2021/06/07 08:07:58;;;;;;;3.90;2.15;;;27.90;71.20;;;;;;5110401;28;20048;-60
2021/06/07 08:10:26;;;;;;;9.43;2.92;;;27.80;71.50;;;;;;5105277;28;20151;-60
2021/06/07 08:12:54;;;;;;;7.47;2.70;;;27.90;72.20;;;;;;5092686;28;20048;-60
2021/06/07 08:15:22;;;;;;;5.15;2.90;;;28.10;70.80;;;;;;5104941;28;20048;-60
2021/06/07 08:17:50;;;;;;;5.10;2.60;;;28.50;70.90;;;;;;5111463;28;20083;-60
2021/06/07 08:20:20;;;;;;;7.25;2.50;;;29.10;70.80;;;;;;5104770;28;20100;-60
2021/06/07 08:22:50;;;;;;;5.63;3.28;;;29.40;69.40;;;;;;5109822;28;20040;-60
2021/06/07 08:25:20;;;;;;;9.73;3.78;;;29.60;68.80;;;;;;5104849;28;20048;-60
2021/06/07 08:27:48;;;;;;;5.25;3.25;;;29.10;68.90;;;;;;5110220;28;20048;-60
2021/06/07 08:30:18;;;;;;;3.13;2.25;;;28.80;69.90;;;;;;5105776;28;20043;-60
2021/06/07 08:32:46;;;;;;;11.25;3.35;;;29.00;70.10;;;;;;5092969;28;20039;-60
2021/06/07 08:35:14;;;;;;;8.38;4.95;;;29.30;69.40;;;;;;5104664;28;20078;-60
2021/06/07 08:37:42;;;;;;;8.68;5.53;;;29.60;69.10;;;;;;5110008;28;20042;-60
2021/06/07 08:40:13;;;;;;;6.85;3.00;;;30.00;68.90;;;;;;5105849;28;20121;-60
2021/06/07 08:42:42;;;;;;;5.30;3.22;;;29.80;68.40;;;;;;5110957;28;20180;-60
2021/06/07 08:45:19;;;;;;;6.15;3.03;;;29.60;69.50;;;;;;5105799;28;20055;-60
2021/06/07 08:47:49;;;;;;;5.43;2.63;;;29.80;69.60;;;;;;5092794;28;20059;-60
2021/06/07 08:50:29;;;;;;;6.00;2.70;;;29.60;67.30;;;;;;5104328;28;20086;-60
2021/06/07 08:52:57;;;;;;;5.03;2.58;;;29.80;67.30;;;;;;5110775;28;20044;-60
2021/06/07 08:55:29;;;;;;;7.63;3.00;;;29.70;67.70;;;;;;5105230;28;20052;-60
2021/06/07 08:57:59;;;;;;;5.45;2.55;;;29.50;67.90;;;;;;5110505;28;20055;-60
2021/06/07 09:00:31;;;;;;;5.38;2.30;;;29.60;67.60;;;;;;5105095;28;20359;-60
2021/06/07 09:03:08;;;;;;;5.28;2.72;;;29.50;66.20;;;;;;5109489;28;20070;-60
2021/06/07 09:05:38;;;;;;;7.82;3.00;;;29.90;67.00;;;;;;5097301;28;20047;-60
2021/06/07 09:08:07;;;;;;;6.10;2.80;;;29.80;68.50;;;;;;5110408;28;20052;-60
2021/06/07 09:10:47;;;;;;;5.95;2.20;;;30.00;69.00;;;;;;5106396;28;20055;-60
2021/06/07 09:13:17;;;;;;;6.18;3.10;;;30.30;68.80;;;;;;5107245;28;20058;-60
2021/06/07 09:15:53;;;;;;;6.60;2.60;;;30.60;67.70;;;;;;5107447;28;20075;-60
2021/06/07 09:18:28;;;;;;;6.15;2.70;;;30.90;64.40;;;;;;5108241;28;20485;-60
2021/06/07 09:21:25;;;;;;;5.72;2.03;;;31.00;62.10;;;;;;5108596;28;20048;-61
2021/06/07 09:24:02;;;;;;;6.07;3.05;;;30.90;62.00;;;;;;5093791;28;20138;-60
2021/06/07 09:26:44;;;;;;;3.90;2.10;;;30.50;62.40;;;;;;5113602;28;20397;-60
2021/06/07 09:29:24;;;;;;;7.13;2.72;;;30.60;63.10;;;;;;5101306;28;20486;-60
2021/06/07 09:31:54;;;;;;;5.15;3.17;;;30.50;63.40;;;;;;5113623;28;20048;-60
2021/06/07 09:34:24;;;;;;;4.88;2.50;;;30.50;63.50;;;;;;5081844;28;20093;-60
2021/06/07 09:36:52;;;;;;;5.30;2.47;;;30.40;62.40;;;;;;5112147;28;20047;-61
2021/06/07 09:39:26;;;;;;;5.30;2.83;;;30.20;63.00;;;;;;5101107;28;20082;-60
2021/06/07 09:41:56;;;;;;;8.00;2.40;;;30.20;62.60;;;;;;5113727;28;20070;-61
2021/06/07 09:44:48;;;;;;;7.97;2.45;;;30.30;63.10;;;;;;5100575;28;20286;-60
2021/06/07 09:47:23;;;;;;;8.80;2.60;;;30.40;62.90;;;;;;5112306;28;20119;-61
2021/06/07 09:50:04;;;;;;;6.07;2.58;;;30.50;61.90;;;;;;5103976;28;20071;-60
2021/06/07 09:52:44;;;;;;;6.78;2.70;;;30.30;61.80;;;;;;5109680;28;20079;-60
2021/06/07 09:55:21;;;;;;;6.47;2.22;;;30.30;61.20;;;;;;5104626;28;20116;-60
2021/06/07 09:57:55;;;;;;;5.47;2.83;;;30.30;61.10;;;;;;5108275;28;20044;-60
2021/06/07 10:00:49;;;;;;;6.78;2.63;;;30.30;60.40;;;;;;5104237;28;20047;-60
2021/06/07 10:03:19;;;;;;;7.95;3.22;;;30.20;59.70;;;;;;5106356;28;20434;-60
2021/06/07 10:05:48;;;;;;;8.13;3.60;;;30.20;60.40;;;;;;5105628;28;20039;-60
2021/06/07 10:08:18;;;;;;;6.30;2.42;;;30.20;60.40;;;;;;5107837;28;20050;-61
2021/06/07 10:10:46;;;;;;;5.85;2.53;;;30.20;60.70;;;;;;5106311;28;20093;-61
2021/06/07 10:13:13;;;;;;;7.82;2.78;;;30.10;61.60;;;;;;5106554;28;20070;-61
2021/06/07 10:15:42;;;;;;;5.00;2.97;;;30.00;62.20;;;;;;5106269;28;20072;-61
2021/06/07 10:18:13;;;;;;;7.93;2.95;;;29.90;62.80;;;;;;5107060;28;20048;-61
2021/06/07 10:23:21;;;;;;;8.27;2.75;;;29.70;67.90;;;;;;5106534;28;20075;-60
2021/06/07 10:25:51;;;;;;;5.32;3.05;;;29.40;68.70;;;;;;5107004;28;20047;-60
2021/06/07 10:28:27;;;;;;;6.43;3.88;;;29.00;70.20;;;;;;5105644;28;20097;-61
2021/06/07 10:30:56;;;;;;;;;;;29.10;71.20;;;;;;5108211;28;20069;-60
2021/06/07 10:33:35;;;;;;;8.18;3.30;;;29.10;72.00;;;;;;5106335;28;20011;-61
2021/06/07 10:36:21;;;;;;;5.80;3.17;;;29.30;72.00;;;;;;5113225;28;20184;-61
2021/06/07 10:38:51;;;;;;;6.07;2.90;;;29.60;71.70;;;;;;5105445;28;20448;-61
2021/06/07 10:41:28;;;;;;;6.25;3.95;;;29.90;70.80;;;;;;5113971;28;20063;-61
2021/06/07 10:43:58;;;;;;;7.93;3.58;;;30.20;69.90;;;;;;5106000;28;20452;-61
2021/06/07 10:46:26;;;;;;;6.05;3.20;;;30.40;70.20;;;;;;5115920;28;20118;-61
2021/06/07 10:48:55;;;;;;;7.60;3.03;;;30.70;69.90;;;;;;5105992;28;20486;-61
2021/06/07 10:51:29;;;;;;;10.00;3.60;;;30.70;69.80;;;;;;5113845;28;20073;-61
2021/06/07 10:54:24;;;;;;;7.78;3.70;;;30.70;69.40;;;;;;5105430;28;20052;-61
2021/06/07 10:56:52;;;;;;;8.10;3.00;;;30.70;69.00;;;;;;5091587;28;20127;-61
2021/06/07 10:59:20;;;;;;;5.03;2.53;;;30.80;68.60;;;;;;5089631;28;20494;-61
2021/06/07 11:01:50;;;;;;;5.93;3.00;;;30.80;68.90;;;;;;5116541;28;20077;-61
2021/06/07 11:04:37;;;;;;;6.03;2.90;;;31.00;68.50;;;;;;5104086;28;20490;-61
2021/06/07 11:07:09;;;;;;;7.15;4.55;;;31.00;67.40;;;;;;5115847;27;20063;-61
2021/06/07 11:10:08;;;;;;;7.45;3.38;;;31.10;67.20;;;;;;5106905;28;20052;-61
2021/06/07 11:12:38;;;;;;;10.88;4.07;;;30.90;67.10;;;;;;5097255;28;20056;-61
2021/06/07 11:15:09;;;;;;;5.68;3.05;;;30.80;67.40;;;;;;5107476;27;20044;-60
2021/06/07 11:17:36;;;;;;;11.35;4.03;;;30.90;66.90;;;;;;5111386;28;20078;-61
2021/06/07 11:20:05;;;;;;;4.90;3.00;;;30.60;67.00;;;;;;5107412;28;20126;-61
2021/06/07 11:23:06;;;;;;;6.05;2.67;;;30.50;67.90;;;;;;5111568;28;20087;-61
2021/06/07 11:26:02;;;;;;;6.18;4.38;;;30.40;68.20;;;;;;5099071;28;20055;-60
2021/06/07 11:28:41;;;;;;;7.53;4.00;;;30.40;68.00;;;;;;5106653;28;20044;-61
2021/06/07 11:31:15;;;;;;;9.50;4.00;;;30.50;67.30;;;;;;5112760;28;20105;-61
2021/06/07 11:34:07;;;;;;;6.03;4.22;;;30.50;69.80;;;;;;5105637;28;20044;-61
2021/06/07 11:36:42;;;;;;;15.15;4.28;;;30.40;75.30;;;;;;5075308;28;20485;-61
2021/06/07 11:39:27;;;;;;;6.90;4.10;;;30.20;78.10;;;;;;5102544;28;20055;-60
2021/06/07 11:41:58;;;;;;;7.32;3.55;;;29.30;81.40;;;;;;5113941;28;20393;-61
2021/06/07 11:44:44;;;;;;;5.88;3.78;;;28.70;83.40;;;;;;5103870;28;20051;-60
2021/06/07 11:47:15;;;;;;;8.88;3.97;;;28.20;84.30;;;;;;5113412;28;20134;-60
2021/06/07 11:49:58;;;;;;;4.72;3.72;;;28.00;86.10;;;;;;5083178;28;20055;-60
2021/06/07 11:52:32;;;;;;;11.20;4.43;;;27.90;86.80;;;;;;5096258;28;20048;-60
2021/06/07 11:55:34;;;;;;;6.30;3.60;;;27.90;86.70;;;;;;5114348;27;20083;-60
2021/06/07 11:58:20;;;;;;;6.28;3.58;;;27.80;87.50;;;;;;5088622;28;20836;-59
2021/06/07 12:00:56;;;;;;;10.65;4.60;;;27.40;88.50;;;;;;5103033;28;20164;-59
2021/06/07 12:03:27;;;;;;;9.05;3.70;;;27.30;89.30;;;;;;5107494;28;20363;-59
2021/06/07 12:05:55;;;;;;;5.05;3.45;;;27.20;89.30;;;;;;5108725;28;20063;-59
2021/06/07 12:08:24;;;;;;;5.88;3.50;;;27.20;90.00;;;;;;5108796;28;20112;-62
2021/06/07 12:11:01;;;;;;;6.55;3.67;;;27.00;90.00;;;;;;5109218;28;20497;-62
2021/06/07 12:13:36;;;;;;;6.05;4.32;;;26.90;90.10;;;;;;5108073;28;20155;-62
2021/06/07 12:16:08;;;;;;;8.98;3.80;;;26.70;90.50;;;;;;5110146;28;20040;-62
2021/06/07 12:18:43;;;;;;;8.07;4.55;;;26.70;90.60;;;;;;5105851;28;20147;-62
2021/06/07 12:21:15;;;;;;;7.50;3.75;;;26.70;90.50;;;;;;5111082;28;20044;-63
2021/06/07 12:23:54;;;;;;;4.75;3.63;;;26.60;90.30;;;;;;5087641;28;20050;-63
2021/06/07 12:29:34;;;;;;;4.30;3.17;;;26.60;89.30;;;;;;5102053;28;20055;-64
2021/06/07 12:32:21;;;;;;;7.03;3.92;;;26.70;87.80;;;;;;5114247;28;20077;-64
2021/06/07 12:35:16;;;;;;;7.18;3.40;;;26.60;87.20;;;;;;5083271;28;20493;-63
2021/06/07 12:37:56;;;;;;;5.93;3.45;;;26.60;87.50;;;;;;5097074;28;20051;-63
2021/06/07 12:40:30;;;;;;;11.65;4.03;;;26.60;88.50;;;;;;5104298;28;20053;-63
2021/06/07 12:43:10;;;;;;;8.52;3.38;;;26.50;89.80;;;;;;5092806;28;20047;-64
2021/06/07 12:45:50;;;;;;;7.70;3.25;;;26.70;90.10;;;;;;5098666;28;20516;-63
2021/06/07 12:48:20;;;;;;;7.90;4.03;;;26.50;90.00;;;;;;5109029;28;20055;-63
2021/06/07 12:50:54;;;;;;;10.57;4.63;;;26.50;90.10;;;;;;5106697;28;20101;-63
2021/06/07 12:53:28;;;;;;;7.57;4.95;;;26.50;90.30;;;;;;5090081;28;20051;-63
2021/06/07 12:56:02;;;;;;;8.77;4.10;;;26.40;90.80;;;;;;5109336;28;20077;-64
2021/06/07 12:58:31;;;;;;;6.30;3.88;;;26.20;90.90;;;;;;5106479;28;20044;-64
2021/06/07 13:01:06;;;;;;;6.60;4.45;;;26.20;90.90;;;;;;5109248;28;20128;-63
2021/06/07 13:03:36;;;;;;;5.25;3.67;;;26.20;90.40;;;;;;5106164;28;20062;-63
2021/06/07 13:06:14;;;;;;;5.80;3.65;;;26.00;90.20;;;;;;5109234;28;20040;-64
2021/06/07 13:09:07;;;;;;;5.13;3.20;;;26.00;90.10;;;;;;5104658;28;20048;-64
2021/06/07 13:11:37;;;;;;;6.10;3.85;;;26.00;89.70;;;;;;5073360;28;20114;-64
2021/06/07 13:14:23;;;;;;;5.75;3.60;;;26.00;88.30;;;;;;5094837;28;20494;-64